Time;durP1;ratioP1;P1;durP2;ratioP2;P2;SDS_P1;SDS_P2;PMS_P1;PMS_P2;Temp;Humidity;BMP_temperature;BMP_pressure;BME280_temperature;BME280_humidity;BME280_pressure;Samples;Min_cycle;Max_cycle;Signal;HPM_P1;HPM_P2
2020/12/06 00:00:08;;;;;;;5.38;4.38;;;17.40;54.60;;;;;;5064922;28;20178;-61
2020/12/06 00:02:34;;;;;;;4.28;3.70;;;17.40;55.30;;;;;;5047444;28;20179;-61
2020/12/06 00:04:59;;;;;;;4.35;3.95;;;17.40;54.60;;;;;;5064845;28;20173;-59
2020/12/06 00:07:25;;;;;;;4.18;3.78;;;17.40;54.70;;;;;;5064848;28;20308;-60
2020/12/06 00:09:51;;;;;;;5.22;3.97;;;17.30;54.60;;;;;;5065052;28;20182;-58
2020/12/06 00:12:16;;;;;;;4.70;3.83;;;17.30;54.60;;;;;;5065019;28;20183;-61
2020/12/06 00:14:42;;;;;;;4.25;3.85;;;17.30;54.60;;;;;;5064753;28;20204;-61
2020/12/06 00:17:07;;;;;;;3.90;3.50;;;17.20;54.60;;;;;;5064830;28;20174;-60
2020/12/06 00:19:33;;;;;;;3.90;3.53;;;17.20;54.60;;;;;;5064524;28;20175;-60
2020/12/06 00:21:58;;;;;;;6.38;4.32;;;17.30;54.60;;;;;;5064759;28;20174;-61
2020/12/06 00:24:24;;;;;;;5.95;3.92;;;17.20;54.60;;;;;;5064575;28;20298;-60
2020/12/06 00:26:49;;;;;;;5.07;3.90;;;17.20;54.60;;;;;;5064027;28;20173;-60
2020/12/06 00:29:15;;;;;;;4.45;3.45;;;17.20;54.70;;;;;;5064320;28;20292;-58
2020/12/06 00:31:40;;;;;;;3.75;3.45;;;17.20;54.60;;;;;;5064169;28;20178;-58
2020/12/06 00:34:06;;;;;;;4.05;3.67;;;17.20;54.60;;;;;;5064619;28;20244;-56
2020/12/06 00:36:32;;;;;;;3.70;3.40;;;17.10;54.60;;;;;;5064187;28;20253;-60
2020/12/06 00:38:57;;;;;;;4.00;3.60;;;17.10;54.60;;;;;;5064293;28;20175;-59
2020/12/06 00:41:23;;;;;;;4.45;3.85;;;17.20;54.60;;;;;;5064287;28;20654;-61
2020/12/06 00:43:48;;;;;;;3.90;3.55;;;17.10;54.60;;;;;;5063840;28;20550;-61
2020/12/06 00:46:22;;;;;;;3.78;3.47;;;17.10;54.60;;;;;;5064399;28;20175;-61
2020/12/06 00:48:48;;;;;;;4.32;3.47;;;17.10;54.60;;;;;;5064059;28;20601;-60
2020/12/06 00:51:13;;;;;;;4.30;3.90;;;17.10;54.60;;;;;;5064549;28;20174;-59
2020/12/06 00:53:42;;;;;;;4.57;3.83;;;17.10;54.60;;;;;;5064432;28;20171;-59
2020/12/06 00:56:18;;;;;;;4.00;3.60;;;17.00;54.60;;;;;;5063801;28;20938;-60
2020/12/06 00:58:45;;;;;;;4.10;3.70;;;17.00;54.60;;;;;;5064093;28;20178;-59
2020/12/06 01:01:10;;;;;;;3.95;3.65;;;17.00;54.50;;;;;;5063994;28;20556;-59
2020/12/06 01:03:36;;;;;;;4.70;3.45;;;17.00;54.50;;;;;;5064401;28;20170;-60
2020/12/06 01:06:01;;;;;;;4.25;3.85;;;17.00;54.60;;;;;;5064260;28;20174;-61
2020/12/06 01:08:27;;;;;;;3.88;3.55;;;17.00;54.50;;;;;;5064182;28;20213;-60
2020/12/06 01:10:52;;;;;;;3.70;3.40;;;17.00;54.50;;;;;;5063933;28;20944;-60
2020/12/06 01:13:18;;;;;;;3.45;3.15;;;17.00;54.50;;;;;;5064183;28;20906;-61
2020/12/06 01:15:43;;;;;;;4.40;4.00;;;16.90;54.50;;;;;;5063767;28;20528;-61
2020/12/06 01:18:09;;;;;;;4.00;3.60;;;17.00;54.60;;;;;;5063884;28;20200;-61
2020/12/06 01:20:34;;;;;;;3.88;3.58;;;16.90;54.60;;;;;;5063983;28;20278;-57
2020/12/06 01:23:00;;;;;;;3.80;3.50;;;16.90;54.60;;;;;;5063775;28;20229;-59
2020/12/06 01:25:25;;;;;;;3.42;3.13;;;16.90;54.50;;;;;;5063745;28;20186;-60
2020/12/06 01:27:51;;;;;;;3.83;3.42;;;16.90;54.50;;;;;;5063747;28;20221;-60
2020/12/06 01:30:17;;;;;;;3.90;3.60;;;16.90;54.60;;;;;;5063649;28;20228;-59
2020/12/06 01:32:42;;;;;;;3.95;3.60;;;16.90;54.50;;;;;;5063959;28;20236;-59
2020/12/06 01:35:08;;;;;;;3.67;3.35;;;16.90;54.50;;;;;;5063848;28;20248;-60
2020/12/06 01:37:33;;;;;;;4.20;3.80;;;16.80;54.50;;;;;;5063610;28;20262;-60
2020/12/06 01:39:59;;;;;;;3.80;3.50;;;16.80;54.50;;;;;;5066070;28;20213;-60
2020/12/06 01:42:24;;;;;;;4.40;3.42;;;16.80;54.50;;;;;;5067917;28;20643;-60
2020/12/06 01:45:10;;;;;;;4.45;3.85;;;16.80;54.50;;;;;;5067560;28;20717;-59
2020/12/06 01:47:35;;;;;;;3.40;3.10;;;16.80;54.50;;;;;;5067029;28;20271;-60
2020/12/06 01:50:01;;;;;;;3.88;3.47;;;16.80;54.50;;;;;;5067942;28;20174;-60
2020/12/06 01:52:29;;;;;;;3.88;3.58;;;16.80;54.50;;;;;;5067733;28;20185;-60
2020/12/06 01:54:55;;;;;;;4.53;3.28;;;16.80;54.50;;;;;;5050229;28;20221;-59
2020/12/06 01:57:20;;;;;;;3.10;2.90;;;16.70;54.40;;;;;;5049892;28;20652;-62
2020/12/06 01:59:46;;;;;;;3.28;2.97;;;16.80;54.50;;;;;;5067681;28;20656;-61
2020/12/06 02:02:13;;;;;;;3.70;3.40;;;16.70;54.50;;;;;;5067426;28;20193;-59
2020/12/06 02:04:38;;;;;;;3.70;3.38;;;16.70;54.40;;;;;;5067457;28;20257;-58
2020/12/06 02:07:04;;;;;;;3.45;3.15;;;16.70;54.40;;;;;;5049396;28;20278;-59
2020/12/06 02:09:29;;;;;;;4.20;3.80;;;16.70;54.50;;;;;;5049616;28;20260;-60
2020/12/06 02:11:55;;;;;;;4.03;3.72;;;16.70;54.50;;;;;;5067460;28;20178;-58
2020/12/06 02:14:21;;;;;;;3.58;3.28;;;16.60;54.40;;;;;;5067689;28;20174;-59
2020/12/06 02:16:46;;;;;;;3.67;3.38;;;16.70;54.50;;;;;;5049334;28;20175;-58
2020/12/06 02:19:12;;;;;;;3.70;3.35;;;16.60;54.40;;;;;;5067111;28;20170;-58
2020/12/06 02:21:39;;;;;;;3.42;3.13;;;16.60;54.50;;;;;;5067373;28;20264;-61
2020/12/06 02:24:06;;;;;;;3.60;3.30;;;16.60;54.40;;;;;;5066821;28;20209;-59
2020/12/06 02:26:44;;;;;;;3.45;3.17;;;16.60;54.50;;;;;;5066822;28;20163;-59
2020/12/06 02:29:09;;;;;;;4.07;3.67;;;16.60;54.50;;;;;;5066852;28;20202;-59
2020/12/06 02:31:35;;;;;;;4.30;3.67;;;16.60;54.50;;;;;;5067170;28;20182;-57
2020/12/06 02:34:01;;;;;;;3.70;3.40;;;16.60;54.50;;;;;;5066847;28;20209;-61
2020/12/06 02:36:27;;;;;;;3.80;3.50;;;16.60;54.50;;;;;;5066864;28;20182;-60
2020/12/06 02:38:52;;;;;;;3.47;3.17;;;16.60;54.50;;;;;;5066871;28;20210;-60
2020/12/06 02:41:18;;;;;;;3.97;3.58;;;16.60;54.50;;;;;;5066730;28;20189;-57
2020/12/06 02:43:44;;;;;;;4.00;3.70;;;16.50;54.40;;;;;;5048867;28;20178;-61
2020/12/06 02:46:09;;;;;;;3.30;3.10;;;16.50;54.40;;;;;;5066748;28;20644;-61
2020/12/06 02:48:35;;;;;;;3.50;3.20;;;16.50;54.50;;;;;;5066548;28;20210;-60
2020/12/06 02:51:01;;;;;;;3.72;3.42;;;16.50;54.50;;;;;;5066347;28;20227;-60
2020/12/06 02:53:27;;;;;;;3.10;2.90;;;16.50;54.40;;;;;;5049133;28;20193;-60
2020/12/06 02:55:52;;;;;;;3.20;3.00;;;16.50;54.50;;;;;;5066334;28;20186;-60
2020/12/06 02:58:18;;;;;;;3.58;3.28;;;16.50;54.50;;;;;;5066294;28;20171;-60
2020/12/06 03:00:43;;;;;;;3.65;3.35;;;16.50;54.40;;;;;;5066434;28;20191;-60
2020/12/06 03:03:09;;;;;;;3.40;3.10;;;16.50;54.40;;;;;;5066413;28;20953;-59
2020/12/06 03:05:34;;;;;;;2.90;2.70;;;16.50;54.40;;;;;;5066424;28;20179;-62
2020/12/06 03:08:00;;;;;;;3.42;3.13;;;16.40;55.00;;;;;;5065860;28;20214;-61
2020/12/06 03:10:26;;;;;;;3.90;3.60;;;16.40;54.40;;;;;;5066312;28;20187;-61
2020/12/06 03:12:51;;;;;;;3.92;3.63;;;16.40;54.40;;;;;;5066256;28;20182;-60
2020/12/06 03:15:17;;;;;;;3.33;3.03;;;16.40;54.40;;;;;;5065892;28;20209;-60
2020/12/06 03:17:42;;;;;;;3.90;3.58;;;16.40;55.00;;;;;;5065853;28;20178;-61
2020/12/06 03:20:08;;;;;;;4.05;3.58;;;16.40;54.40;;;;;;5066167;28;20182;-60
2020/12/06 03:22:33;;;;;;;3.60;3.30;;;16.40;54.40;;;;;;5065920;28;20631;-59
2020/12/06 03:25:00;;;;;;;3.50;3.20;;;16.40;54.40;;;;;;5066057;28;20234;-56
2020/12/06 03:27:26;;;;;;;3.67;3.38;;;16.40;54.40;;;;;;5048031;28;20202;-60
2020/12/06 03:29:51;;;;;;;3.70;3.40;;;16.40;54.40;;;;;;5065825;28;20423;-59
2020/12/06 03:32:17;;;;;;;3.40;3.10;;;16.30;54.40;;;;;;5065403;28;20170;-58
2020/12/06 03:34:42;;;;;;;3.88;3.58;;;16.30;54.40;;;;;;5065748;28;20179;-60
2020/12/06 03:37:08;;;;;;;3.88;3.58;;;16.40;54.40;;;;;;5065693;28;20178;-61
2020/12/06 03:39:33;;;;;;;3.88;3.38;;;16.30;54.40;;;;;;5065560;28;20170;-59
2020/12/06 03:41:59;;;;;;;3.42;3.13;;;16.30;54.40;;;;;;5065456;28;20529;-60
2020/12/06 03:44:24;;;;;;;3.47;3.17;;;16.30;54.40;;;;;;5065417;28;20506;-61
2020/12/06 03:46:50;;;;;;;3.42;3.13;;;16.30;54.40;;;;;;5065341;28;20308;-61
2020/12/06 03:49:15;;;;;;;3.10;2.85;;;16.30;54.40;;;;;;5065489;28;20287;-58
2020/12/06 03:51:41;;;;;;;3.35;3.10;;;16.30;54.40;;;;;;5065485;28;20174;-58
2020/12/06 03:54:06;;;;;;;3.55;3.25;;;16.30;54.40;;;;;;5065143;28;20174;-58
2020/12/06 03:56:32;;;;;;;3.50;3.20;;;16.20;54.30;;;;;;5064962;28;20167;-60
2020/12/06 03:58:58;;;;;;;3.25;3.03;;;16.30;54.40;;;;;;5065039;28;20261;-59
2020/12/06 04:01:23;;;;;;;3.65;3.33;;;16.20;54.30;;;;;;5064710;28;20210;-60
2020/12/06 04:03:49;;;;;;;3.35;3.05;;;16.20;54.30;;;;;;5065217;28;20175;-59
2020/12/06 04:06:14;;;;;;;3.65;3.35;;;16.20;54.30;;;;;;5065453;28;20628;-61
2020/12/06 04:08:40;;;;;;;3.53;3.22;;;16.20;54.40;;;;;;5065046;28;20555;-61
2020/12/06 04:11:05;;;;;;;3.85;3.55;;;16.20;54.40;;;;;;5064988;28;20584;-60
2020/12/06 04:13:32;;;;;;;3.50;3.20;;;16.20;54.30;;;;;;5065136;28;20171;-59
2020/12/06 04:15:58;;;;;;;3.60;3.13;;;16.20;54.30;;;;;;5065117;28;20166;-59
2020/12/06 04:18:23;;;;;;;3.47;3.17;;;16.20;54.40;;;;;;5064754;28;20189;-58
2020/12/06 04:20:49;;;;;;;3.60;3.30;;;16.20;54.40;;;;;;5065043;28;20171;-60
2020/12/06 04:23:15;;;;;;;3.22;3.00;;;16.20;54.40;;;;;;5064938;28;20233;-60
2020/12/06 04:25:40;;;;;;;3.35;3.08;;;16.20;54.40;;;;;;5064896;28;20624;-59
2020/12/06 04:28:10;;;;;;;3.88;3.00;;;16.20;54.40;;;;;;5064512;28;20619;-60
2020/12/06 04:30:36;;;;;;;3.50;3.30;;;16.20;54.40;;;;;;5064548;28;20171;-60
2020/12/06 04:33:02;;;;;;;3.72;3.40;;;16.20;54.40;;;;;;5065032;28;20170;-61
2020/12/06 04:35:27;;;;;;;4.05;3.40;;;16.10;54.40;;;;;;5064841;28;20178;-59
2020/12/06 04:37:53;;;;;;;3.65;3.35;;;16.10;54.40;;;;;;5064644;28;20691;-61
2020/12/06 04:40:18;;;;;;;3.40;3.10;;;16.10;54.40;;;;;;5064650;28;20171;-59
2020/12/06 04:42:45;;;;;;;3.10;2.90;;;16.10;54.40;;;;;;5064935;28;20201;-59
2020/12/06 04:45:11;;;;;;;3.40;3.10;;;16.10;54.40;;;;;;5064493;28;20224;-58
2020/12/06 04:47:56;;;;;;;4.00;3.70;;;16.10;54.40;;;;;;5046974;28;20294;-60
2020/12/06 04:50:31;;;;;;;3.60;3.30;;;16.10;54.50;;;;;;5064324;28;20198;-59
2020/12/06 04:52:58;;;;;;;3.30;3.08;;;16.10;54.50;;;;;;5064356;28;20201;-59
2020/12/06 04:55:26;;;;;;;3.35;3.10;;;16.10;54.40;;;;;;5046805;28;20174;-60
2020/12/06 04:57:53;;;;;;;3.95;3.65;;;16.10;54.50;;;;;;5064489;28;20178;-61
2020/12/06 05:00:18;;;;;;;3.42;3.22;;;16.00;54.40;;;;;;5046860;28;20177;-60
2020/12/06 05:02:44;;;;;;;3.45;3.17;;;16.00;54.40;;;;;;5029802;28;20190;-61
2020/12/06 05:05:09;;;;;;;3.08;2.88;;;16.00;54.40;;;;;;5029678;28;20182;-58
2020/12/06 05:07:35;;;;;;;3.42;3.22;;;16.10;54.50;;;;;;5030026;28;21020;-62
2020/12/06 05:10:02;;;;;;;3.33;3.00;;;16.00;54.40;;;;;;5064292;28;20870;-60
2020/12/06 05:12:27;;;;;;;3.60;3.30;;;16.00;54.40;;;;;;5046259;28;20190;-57
2020/12/06 05:14:53;;;;;;;3.75;3.45;;;16.00;54.40;;;;;;5063783;28;20488;-56
2020/12/06 05:17:19;;;;;;;4.15;3.75;;;16.00;54.40;;;;;;5063986;28;20181;-59
2020/12/06 05:19:45;;;;;;;3.90;3.50;;;16.00;54.40;;;;;;5064240;28;20178;-60
2020/12/06 05:22:11;;;;;;;3.63;3.33;;;15.90;54.40;;;;;;5064149;28;20175;-57
2020/12/06 05:24:36;;;;;;;3.67;3.40;;;16.00;54.40;;;;;;5063574;28;20629;-57
2020/12/06 05:27:02;;;;;;;3.53;3.22;;;15.90;54.40;;;;;;5063764;28;20406;-60
2020/12/06 05:29:28;;;;;;;3.78;3.47;;;15.90;54.40;;;;;;5064052;28;20210;-58
2020/12/06 05:31:57;;;;;;;3.40;3.20;;;16.00;54.40;;;;;;5064308;28;20639;-58
2020/12/06 05:34:22;;;;;;;3.70;3.38;;;15.90;54.40;;;;;;5063825;28;20632;-59
2020/12/06 05:36:48;;;;;;;4.00;3.70;;;15.90;54.40;;;;;;5046129;28;20244;-60
2020/12/06 05:39:13;;;;;;;3.63;3.40;;;15.90;54.40;;;;;;5063878;28;20178;-60
2020/12/06 05:41:39;;;;;;;3.60;3.30;;;15.90;54.40;;;;;;5063723;28;20171;-61
2020/12/06 05:44:05;;;;;;;3.35;3.15;;;15.90;54.50;;;;;;5046075;28;20240;-60
2020/12/06 05:46:34;;;;;;;3.45;3.20;;;15.90;54.40;;;;;;5063717;28;20212;-61
2020/12/06 05:49:02;;;;;;;3.58;3.28;;;15.90;54.50;;;;;;5046535;28;20215;-60
2020/12/06 05:51:28;;;;;;;3.75;3.45;;;15.90;54.40;;;;;;5063527;28;20183;-61
2020/12/06 05:53:53;;;;;;;3.72;3.42;;;15.90;54.50;;;;;;5063700;28;20192;-60
2020/12/06 05:56:19;;;;;;;3.70;3.40;;;15.90;54.50;;;;;;5045770;28;20225;-58
2020/12/06 05:58:46;;;;;;;3.63;3.33;;;15.90;54.40;;;;;;5063734;28;20175;-58
2020/12/06 06:01:13;;;;;;;3.75;3.47;;;15.90;54.50;;;;;;5063821;28;20171;-57
2020/12/06 06:03:47;;;;;;;3.67;3.30;;;15.90;54.50;;;;;;5063618;28;20175;-58
2020/12/06 06:06:26;;;;;;;4.07;3.67;;;15.90;54.40;;;;;;5063355;28;20580;-60
2020/12/06 06:08:54;;;;;;;4.25;3.63;;;15.90;54.50;;;;;;5063386;28;20289;-58
2020/12/06 06:11:24;;;;;;;3.95;3.65;;;16.10;54.60;;;;;;5063627;28;20174;-61
2020/12/06 06:13:55;;;;;;;3.55;3.25;;;16.20;54.60;;;;;;5063231;28;20202;-60
2020/12/06 06:16:21;;;;;;;3.25;3.05;;;16.50;54.30;;;;;;5063500;28;20209;-60
2020/12/06 06:18:48;;;;;;;3.55;3.25;;;16.80;54.10;;;;;;5045800;28;20171;-59
2020/12/06 06:21:15;;;;;;;3.47;3.20;;;17.10;53.40;;;;;;5045623;28;20179;-60
2020/12/06 06:23:41;;;;;;;3.55;3.25;;;17.50;52.60;;;;;;5063573;28;20225;-60
2020/12/06 06:26:06;;;;;;;3.35;3.05;;;17.80;52.10;;;;;;5047767;28;20267;-60
2020/12/06 06:28:32;;;;;;;3.20;3.00;;;18.00;51.50;;;;;;5032703;28;20206;-60
2020/12/06 06:30:57;;;;;;;3.47;3.17;;;18.30;51.10;;;;;;5049197;28;20179;-56
2020/12/06 06:33:24;;;;;;;3.70;3.40;;;18.50;50.80;;;;;;5032026;28;20660;-58
2020/12/06 06:35:50;;;;;;;3.25;2.95;;;18.60;50.70;;;;;;5049141;28;20215;-60
2020/12/06 06:38:18;;;;;;;2.90;2.70;;;18.60;50.60;;;;;;5049180;28;20220;-60
2020/12/06 06:40:45;;;;;;;3.33;3.03;;;18.70;50.60;;;;;;5049260;28;20390;-60
2020/12/06 06:43:10;;;;;;;3.58;3.28;;;18.80;50.50;;;;;;5066720;28;20214;-61
2020/12/06 06:45:43;;;;;;;2.90;2.70;;;18.80;50.50;;;;;;5032332;28;20213;-61
2020/12/06 06:48:15;;;;;;;3.10;2.90;;;18.80;50.50;;;;;;5066814;28;20194;-61
2020/12/06 06:50:40;;;;;;;3.03;2.72;;;18.80;50.50;;;;;;5066874;28;20205;-61
2020/12/06 06:53:06;;;;;;;2.97;2.78;;;18.80;50.60;;;;;;5066626;28;20175;-61
2020/12/06 06:55:53;;;;;;;3.08;2.88;;;18.70;50.60;;;;;;5066839;28;20175;-61
2020/12/06 06:58:21;;;;;;;3.22;2.92;;;18.70;50.60;;;;;;5066373;28;20178;-60
2020/12/06 07:00:47;;;;;;;3.17;2.97;;;18.70;50.70;;;;;;5048946;28;20194;-60
2020/12/06 07:03:12;;;;;;;3.30;3.00;;;18.70;50.80;;;;;;5066307;28;20252;-60
2020/12/06 07:05:38;;;;;;;3.50;3.20;;;18.60;50.90;;;;;;5066270;28;20278;-60
2020/12/06 07:08:15;;;;;;;3.15;2.95;;;18.50;51.00;;;;;;5065812;28;20299;-60
2020/12/06 07:10:41;;;;;;;3.58;3.28;;;18.40;51.10;;;;;;5066284;28;20512;-62
2020/12/06 07:13:06;;;;;;;3.05;2.85;;;18.30;51.40;;;;;;5066366;28;20178;-62
2020/12/06 07:15:32;;;;;;;3.05;2.85;;;18.20;51.60;;;;;;5066262;28;20629;-61
2020/12/06 07:17:58;;;;;;;3.33;3.03;;;18.20;51.70;;;;;;5066179;28;20177;-61
2020/12/06 07:20:24;;;;;;;3.53;3.20;;;18.10;51.90;;;;;;5066039;28;20171;-60
2020/12/06 07:22:50;;;;;;;3.17;2.97;;;18.00;51.90;;;;;;5066172;28;20243;-60
2020/12/06 07:25:17;;;;;;;2.97;2.78;;;18.00;51.90;;;;;;5065832;28;20170;-58
2020/12/06 07:27:42;;;;;;;3.40;3.10;;;18.10;51.90;;;;;;5065615;28;20236;-60
2020/12/06 07:30:09;;;;;;;3.30;3.00;;;18.00;51.90;;;;;;5066210;28;20656;-60
2020/12/06 07:32:35;;;;;;;3.35;3.05;;;18.10;51.90;;;;;;5066052;28;20643;-58
2020/12/06 07:35:00;;;;;;;3.03;2.75;;;18.10;51.90;;;;;;5048387;28;20181;-59
2020/12/06 07:37:26;;;;;;;3.55;3.25;;;18.10;51.80;;;;;;5065781;28;20706;-59
2020/12/06 07:39:52;;;;;;;3.17;2.97;;;18.20;51.80;;;;;;5066141;28;21043;-61
2020/12/06 07:42:25;;;;;;;3.47;3.17;;;18.20;51.70;;;;;;5065717;28;20841;-61
2020/12/06 07:44:55;;;;;;;3.13;2.85;;;18.20;51.70;;;;;;5065534;28;20261;-61
2020/12/06 07:47:20;;;;;;;3.53;3.22;;;18.10;51.80;;;;;;5047503;28;20631;-60
2020/12/06 07:49:51;;;;;;;3.10;2.90;;;18.00;51.80;;;;;;5065928;28;20303;-61
2020/12/06 07:52:35;;;;;;;3.10;2.90;;;18.00;51.90;;;;;;5047254;28;20162;-60
2020/12/06 07:55:05;;;;;;;3.08;2.88;;;18.00;52.20;;;;;;5047732;28;20534;-60
2020/12/06 07:57:52;;;;;;;3.17;2.88;;;17.80;52.20;;;;;;5065608;28;20170;-60
2020/12/06 08:00:21;;;;;;;3.35;2.95;;;17.90;52.40;;;;;;5031034;28;20194;-60
2020/12/06 08:02:57;;;;;;;3.42;3.20;;;17.80;52.40;;;;;;5031449;28;20178;-59
2020/12/06 08:05:23;;;;;;;3.20;2.95;;;17.80;52.40;;;;;;5047330;28;20212;-60
2020/12/06 08:07:58;;;;;;;3.38;3.08;;;17.80;52.30;;;;;;5065417;28;20212;-60
2020/12/06 08:10:24;;;;;;;3.75;2.65;;;17.90;52.30;;;;;;5031039;28;20234;-60
2020/12/06 08:12:49;;;;;;;3.08;2.88;;;17.90;52.20;;;;;;5047350;28;20183;-60
2020/12/06 08:15:15;;;;;;;3.20;2.90;;;17.90;52.20;;;;;;5030175;28;20182;-59
2020/12/06 08:17:47;;;;;;;3.28;3.08;;;18.00;52.20;;;;;;5064905;28;20177;-60
2020/12/06 08:20:14;;;;;;;3.20;2.90;;;18.00;52.10;;;;;;5064809;28;20304;-60
2020/12/06 08:22:55;;;;;;;2.90;2.70;;;17.90;52.20;;;;;;5046640;28;20186;-60
2020/12/06 08:25:23;;;;;;;3.05;2.85;;;17.80;52.30;;;;;;5064930;28;20209;-60
2020/12/06 08:27:49;;;;;;;3.03;2.80;;;17.70;52.40;;;;;;5064757;28;20198;-58
2020/12/06 08:30:16;;;;;;;3.42;3.13;;;17.70;52.60;;;;;;5064820;28;20216;-60
2020/12/06 08:33:01;;;;;;;3.25;3.05;;;17.60;52.60;;;;;;5064893;28;20166;-59
2020/12/06 08:35:40;;;;;;;3.30;3.10;;;17.60;52.60;;;;;;5064429;28;20269;-59
2020/12/06 08:38:21;;;;;;;3.05;2.85;;;17.70;52.70;;;;;;5064739;28;20588;-59
2020/12/06 08:41:00;;;;;;;3.30;3.00;;;17.70;52.70;;;;;;5064287;28;20174;-61
2020/12/06 08:43:45;;;;;;;2.80;2.60;;;17.70;52.60;;;;;;5064710;28;20170;-60
2020/12/06 08:46:11;;;;;;;3.38;3.08;;;17.70;52.60;;;;;;5064597;28;20223;-60
2020/12/06 08:48:37;;;;;;;3.47;3.17;;;17.60;52.60;;;;;;5063785;28;20202;-60
2020/12/06 08:51:03;;;;;;;3.00;2.80;;;17.70;52.70;;;;;;5046312;28;20181;-59
2020/12/06 08:53:42;;;;;;;3.05;2.80;;;17.70;52.70;;;;;;5064249;28;20274;-61
2020/12/06 08:56:23;;;;;;;3.05;2.85;;;17.70;52.60;;;;;;5064671;28;20261;-61
2020/12/06 08:58:49;;;;;;;3.30;3.00;;;17.70;52.60;;;;;;5064548;28;20216;-60
2020/12/06 09:01:14;;;;;;;2.97;2.78;;;17.80;52.60;;;;;;5046499;28;20178;-60
2020/12/06 09:03:40;;;;;;;2.63;2.42;;;17.90;52.50;;;;;;5064543;28;20174;-57
2020/12/06 09:06:13;;;;;;;3.20;3.00;;;17.80;52.40;;;;;;5063916;28;20278;-58
2020/12/06 09:08:39;;;;;;;3.72;3.42;;;17.80;52.40;;;;;;5064063;28;20228;-61
2020/12/06 09:11:05;;;;;;;3.47;3.13;;;17.70;52.50;;;;;;5064357;28;20624;-61
2020/12/06 09:13:30;;;;;;;4.47;3.20;;;17.60;52.80;;;;;;5064018;28;20995;-64
2020/12/06 09:15:56;;;;;;;3.22;2.92;;;17.60;53.40;;;;;;5064014;28;21079;-63
2020/12/06 09:18:21;;;;;;;4.25;3.08;;;17.60;53.40;;;;;;5063894;28;21027;-63
2020/12/06 09:20:47;;;;;;;3.40;3.10;;;17.60;53.60;;;;;;5064022;28;20625;-64
2020/12/06 09:23:12;;;;;;;5.40;3.45;;;17.50;53.60;;;;;;5064063;28;20537;-64
2020/12/06 09:25:38;;;;;;;2.80;2.60;;;17.60;53.70;;;;;;5063801;28;20178;-64
2020/12/06 09:28:03;;;;;;;3.40;3.10;;;17.60;53.60;;;;;;5049752;28;20215;-63
2020/12/06 09:30:29;;;;;;;3.08;2.78;;;17.70;53.50;;;;;;5059852;28;20175;-63
2020/12/06 09:32:54;;;;;;;3.70;3.40;;;17.70;53.40;;;;;;5043624;28;20179;-64
2020/12/06 09:35:20;;;;;;;4.25;2.65;;;17.70;53.30;;;;;;5052205;28;20177;-64
2020/12/06 09:37:45;;;;;;;5.18;3.10;;;17.70;53.30;;;;;;5063843;28;20232;-64
2020/12/06 09:40:11;;;;;;;3.53;3.22;;;17.70;53.40;;;;;;5063882;28;20640;-63
2020/12/06 09:42:37;;;;;;;3.63;3.30;;;17.60;53.40;;;;;;5063868;28;20171;-63
2020/12/06 09:45:02;;;;;;;3.00;2.50;;;17.60;53.50;;;;;;5044749;28;20269;-64
2020/12/06 09:47:28;;;;;;;3.00;2.80;;;17.60;53.50;;;;;;5043335;28;20179;-64
2020/12/06 09:49:53;;;;;;;4.28;3.00;;;17.60;53.50;;;;;;5043882;28;20175;-64
2020/12/06 09:52:19;;;;;;;3.63;3.33;;;17.60;53.50;;;;;;5043557;28;20693;-63
2020/12/06 09:54:44;;;;;;;3.10;2.90;;;17.60;53.40;;;;;;5043610;28;20629;-62
2020/12/06 09:57:10;;;;;;;3.10;2.80;;;17.70;53.40;;;;;;5043479;28;20514;-63
2020/12/06 09:59:35;;;;;;;3.28;2.97;;;17.70;53.20;;;;;;5043878;28;20206;-63
2020/12/06 10:02:01;;;;;;;3.22;2.75;;;17.80;53.20;;;;;;5065109;28;20182;-64
2020/12/06 10:04:26;;;;;;;3.58;2.97;;;17.80;53.70;;;;;;5067535;28;20212;-63
2020/12/06 10:06:52;;;;;;;2.88;2.60;;;17.80;53.00;;;;;;5067191;28;20178;-64
2020/12/06 10:09:18;;;;;;;3.70;2.95;;;17.70;53.00;;;;;;5067594;28;20203;-63
2020/12/06 10:11:43;;;;;;;2.85;2.65;;;17.70;53.10;;;;;;5067380;28;20628;-62
2020/12/06 10:14:09;;;;;;;3.28;2.97;;;17.70;53.20;;;;;;5067507;28;20574;-63
2020/12/06 10:16:34;;;;;;;3.00;2.75;;;17.60;53.20;;;;;;5067162;28;20175;-64
2020/12/06 10:19:00;;;;;;;3.13;2.88;;;17.60;53.30;;;;;;5049108;28;20183;-63
2020/12/06 10:21:25;;;;;;;2.80;2.60;;;17.60;53.30;;;;;;5067310;28;20235;-64
2020/12/06 10:23:51;;;;;;;3.38;2.90;;;17.70;53.30;;;;;;5066806;28;20190;-64
2020/12/06 10:26:16;;;;;;;3.20;2.90;;;17.70;53.30;;;;;;5055246;28;20273;-64
2020/12/06 10:28:42;;;;;;;3.30;3.00;;;17.80;53.50;;;;;;5055799;28;20729;-64
2020/12/06 10:31:07;;;;;;;3.13;2.92;;;17.80;53.50;;;;;;5055476;28;20171;-64
2020/12/06 10:33:33;;;;;;;3.58;3.00;;;17.80;53.40;;;;;;5055591;28;20179;-64
2020/12/06 10:35:59;;;;;;;3.10;2.90;;;17.80;53.40;;;;;;5035283;28;20277;-64
2020/12/06 10:38:24;;;;;;;2.65;2.47;;;18.10;53.30;;;;;;5057482;28;20214;-64
2020/12/06 10:40:50;;;;;;;3.05;2.75;;;18.20;53.10;;;;;;5054563;28;20381;-64
2020/12/06 10:43:15;;;;;;;2.75;2.55;;;18.50;52.60;;;;;;5056217;28;20174;-63
2020/12/06 10:45:41;;;;;;;3.03;2.70;;;18.80;52.20;;;;;;5056088;28;20179;-66
2020/12/06 10:48:06;;;;;;;3.78;2.42;;;19.00;51.90;;;;;;5054629;28;21172;-66
2020/12/06 10:50:32;;;;;;;2.65;2.45;;;19.30;51.50;;;;;;5056228;28;20977;-65
2020/12/06 10:52:58;;;;;;;2.70;2.50;;;19.50;51.30;;;;;;5055597;28;20177;-65
2020/12/06 10:55:26;;;;;;;2.92;2.30;;;19.60;51.10;;;;;;5055262;28;20190;-64
2020/12/06 10:57:53;;;;;;;2.72;2.40;;;19.70;50.90;;;;;;5053669;28;20286;-65
2020/12/06 11:00:20;;;;;;;2.88;2.67;;;19.80;50.80;;;;;;5055009;28;20181;-64
2020/12/06 11:02:46;;;;;;;2.72;2.53;;;19.80;50.90;;;;;;5038116;28;21018;-64
2020/12/06 11:05:11;;;;;;;2.30;2.20;;;19.90;50.80;;;;;;5053681;28;20175;-64
2020/12/06 11:07:37;;;;;;;3.38;2.78;;;19.90;50.80;;;;;;5055147;28;20181;-63
2020/12/06 11:10:03;;;;;;;2.78;2.58;;;19.90;50.80;;;;;;5054987;28;20198;-63
2020/12/06 11:12:28;;;;;;;3.50;2.53;;;19.90;50.90;;;;;;5053098;28;20182;-64
2020/12/06 11:14:54;;;;;;;2.45;2.25;;;19.90;50.90;;;;;;5055413;28;20179;-64
2020/12/06 11:17:19;;;;;;;2.67;2.47;;;19.90;51.10;;;;;;5054581;28;20179;-63
2020/12/06 11:19:45;;;;;;;2.72;2.53;;;19.80;51.10;;;;;;5053878;28;20179;-64
2020/12/06 11:22:10;;;;;;;2.47;2.28;;;19.80;51.30;;;;;;5055204;28;20261;-63
2020/12/06 11:24:36;;;;;;;3.50;2.80;;;19.70;51.30;;;;;;5053649;28;20183;-64
2020/12/06 11:27:02;;;;;;;2.70;2.50;;;19.80;51.40;;;;;;5054412;28;20185;-64
2020/12/06 11:29:28;;;;;;;2.55;2.33;;;19.70;51.40;;;;;;5055022;28;20210;-64
2020/12/06 11:31:53;;;;;;;2.90;2.40;;;19.60;51.50;;;;;;5053143;28;20241;-64
2020/12/06 11:34:19;;;;;;;2.75;2.55;;;19.60;51.70;;;;;;5054802;28;20270;-64
2020/12/06 11:36:48;;;;;;;3.20;2.35;;;19.60;51.70;;;;;;5053646;28;20178;-64
2020/12/06 11:39:13;;;;;;;2.30;2.10;;;19.60;51.80;;;;;;5054935;28;20542;-64
2020/12/06 11:41:39;;;;;;;2.50;2.30;;;19.60;51.80;;;;;;5053763;28;20175;-64
2020/12/06 11:44:04;;;;;;;2.97;2.10;;;19.60;51.80;;;;;;5053508;28;20632;-65
2020/12/06 11:46:30;;;;;;;2.55;2.35;;;19.70;51.70;;;;;;5054961;28;20178;-65
2020/12/06 11:48:55;;;;;;;2.85;2.60;;;19.80;52.30;;;;;;5052977;28;20207;-65
2020/12/06 11:51:21;;;;;;;2.60;2.40;;;19.80;51.80;;;;;;5054104;28;20191;-65
2020/12/06 11:53:47;;;;;;;2.72;2.53;;;19.80;51.80;;;;;;5054920;28;20171;-64
2020/12/06 11:56:13;;;;;;;3.17;2.45;;;19.90;51.60;;;;;;5053014;28;20542;-64
2020/12/06 11:58:40;;;;;;;3.28;2.47;;;19.90;51.60;;;;;;5059044;28;20265;-62
2020/12/06 12:01:06;;;;;;;3.20;2.90;;;19.90;51.60;;;;;;5065479;28;20171;-64
2020/12/06 12:03:32;;;;;;;3.13;2.83;;;19.90;51.30;;;;;;5065280;28;20581;-64
2020/12/06 12:05:57;;;;;;;3.10;2.85;;;19.80;51.30;;;;;;5065174;28;20534;-63
2020/12/06 12:08:23;;;;;;;3.05;2.80;;;19.80;51.40;;;;;;5065339;28;20203;-66
2020/12/06 12:10:48;;;;;;;3.88;2.85;;;19.80;51.40;;;;;;5064934;28;20171;-65
2020/12/06 12:13:14;;;;;;;2.60;2.17;;;20.00;51.60;;;;;;5047378;28;20185;-65
2020/12/06 12:15:39;;;;;;;2.50;2.30;;;19.90;51.40;;;;;;5047447;28;20213;-65
2020/12/06 12:18:05;;;;;;;3.80;2.15;;;20.00;51.30;;;;;;5065005;28;20182;-64
2020/12/06 12:20:30;;;;;;;4.40;2.85;;;20.00;51.20;;;;;;5065036;28;20182;-65
2020/12/06 12:22:56;;;;;;;3.15;2.42;;;19.90;51.40;;;;;;5064359;28;20194;-65
2020/12/06 12:25:22;;;;;;;3.05;2.30;;;19.90;51.50;;;;;;5064956;28;20183;-65
2020/12/06 12:27:47;;;;;;;4.75;2.47;;;19.90;51.50;;;;;;5064406;28;20202;-65
2020/12/06 12:30:13;;;;;;;3.13;2.45;;;19.90;51.50;;;;;;5064448;28;20231;-64
2020/12/06 12:32:38;;;;;;;4.28;2.28;;;19.90;51.60;;;;;;5046382;28;20262;-65
2020/12/06 12:35:04;;;;;;;3.08;2.50;;;19.90;51.60;;;;;;5055769;28;20187;-65
2020/12/06 12:37:29;;;;;;;3.15;2.20;;;19.90;51.60;;;;;;5044508;28;21017;-64
2020/12/06 12:39:55;;;;;;;2.45;2.25;;;19.90;51.70;;;;;;5044446;28;20210;-65
2020/12/06 12:42:21;;;;;;;2.63;2.42;;;19.90;51.80;;;;;;5044243;28;20175;-64
2020/12/06 12:44:46;;;;;;;2.92;2.33;;;19.90;51.70;;;;;;5044426;28;20537;-65